createdAt,value
2018-09-23T00:01:42.108Z,1.30
2018-09-23T00:04:09.364Z,1.30
2018-09-23T00:06:36.553Z,1.20
2018-09-23T00:09:05.566Z,1.27
2018-09-23T00:11:32.833Z,1.07
2018-09-23T00:14:00.111Z,0.93
2018-09-23T00:16:27.347Z,1.37
2018-09-23T00:18:54.581Z,1.63
2018-09-23T00:21:21.876Z,1.43
2018-09-23T00:23:49.138Z,1.27
2018-09-23T00:26:16.396Z,1.30
2018-09-23T00:28:43.644Z,1.50
2018-09-23T00:31:10.914Z,1.50
2018-09-23T00:33:38.199Z,1.40
2018-09-23T00:36:05.487Z,1.70
2018-09-23T00:38:32.728Z,1.43
2018-09-23T00:40:59.978Z,1.50
2018-09-23T00:43:27.228Z,1.40
2018-09-23T00:45:54.684Z,1.20
2018-09-23T00:48:21.911Z,1.47
2018-09-23T00:50:49.185Z,1.50
2018-09-23T00:53:16.441Z,1.67
2018-09-23T00:55:43.708Z,1.37
2018-09-23T00:58:11.018Z,1.30
2018-09-23T01:00:38.305Z,1.50
2018-09-23T01:03:05.755Z,1.37
2018-09-23T01:05:33.007Z,1.47
2018-09-23T01:08:00.312Z,1.40
2018-09-23T01:10:27.568Z,1.30
2018-09-23T01:12:54.916Z,1.77
2018-09-23T01:15:22.194Z,1.30
2018-09-23T01:17:49.435Z,1.30
2018-09-23T01:20:16.697Z,1.80
2018-09-23T01:22:43.911Z,1.70
2018-09-23T01:25:11.268Z,1.50
2018-09-23T01:27:38.484Z,1.33
2018-09-23T01:30:05.744Z,1.47
2018-09-23T01:32:32.968Z,1.20
2018-09-23T01:35:00.265Z,1.47
2018-09-23T01:37:27.564Z,1.50
2018-09-23T01:39:54.817Z,1.50
2018-09-23T01:42:22.097Z,1.40
2018-09-23T01:44:49.307Z,1.40
2018-09-23T01:47:16.519Z,1.43
2018-09-23T01:49:43.798Z,1.57
2018-09-23T01:52:11.041Z,1.40
2018-09-23T01:54:38.307Z,1.70
2018-09-23T01:57:05.516Z,1.30
2018-09-23T01:59:32.776Z,1.50
2018-09-23T02:02:00.011Z,1.70
2018-09-23T02:04:27.277Z,1.53
2018-09-23T02:06:54.517Z,1.63
2018-09-23T02:09:21.732Z,1.20
2018-09-23T02:11:48.961Z,1.50
2018-09-23T02:14:16.232Z,1.70
2018-09-23T02:16:43.529Z,1.70
2018-09-23T02:21:47.625Z,1.63
2018-09-23T02:24:15.044Z,1.50
2018-09-23T02:26:42.346Z,1.73
2018-09-23T02:29:09.705Z,2.00
2018-09-23T02:31:36.952Z,2.23
2018-09-23T02:34:07.449Z,1.97
2018-09-23T02:36:34.708Z,2.17
2018-09-23T02:39:02.068Z,2.17
2018-09-23T02:41:29.361Z,2.03
2018-09-23T02:43:56.569Z,1.97
2018-09-23T02:46:23.834Z,1.53
2018-09-23T02:48:51.059Z,1.80
2018-09-23T02:51:18.357Z,1.90
2018-09-23T02:53:45.581Z,2.03
2018-09-23T02:56:12.801Z,1.80
2018-09-23T02:58:40.036Z,1.80
2018-09-23T03:01:07.314Z,1.80
2018-09-23T03:03:34.610Z,1.90
2018-09-23T03:06:01.915Z,1.87
2018-09-23T03:08:29.174Z,2.30
2018-09-23T03:10:56.419Z,2.63
2018-09-23T03:13:23.665Z,2.00
2018-09-23T03:15:51.125Z,1.77
2018-09-23T03:18:18.405Z,2.80
2018-09-23T03:20:45.661Z,1.90
2018-09-23T03:23:12.925Z,1.93
2018-09-23T03:25:40.142Z,1.60
2018-09-23T03:28:07.406Z,2.10
2018-09-23T03:30:34.657Z,2.27
2018-09-23T03:33:01.942Z,2.13
2018-09-23T03:35:29.182Z,2.17
2018-09-23T03:37:56.404Z,1.77
2018-09-23T03:40:23.616Z,2.30
2018-09-23T03:42:50.910Z,1.90
2018-09-23T03:45:18.143Z,2.00
2018-09-23T03:47:45.576Z,2.00
2018-09-23T03:50:12.849Z,1.77
2018-09-23T03:52:40.081Z,1.83
2018-09-23T03:55:07.346Z,1.80
2018-09-23T03:57:34.594Z,1.80
2018-09-23T04:00:01.789Z,2.30
2018-09-23T04:02:29.005Z,1.90
2018-09-23T04:04:56.243Z,2.40
2018-09-23T04:07:23.454Z,2.37
2018-09-23T04:09:50.700Z,2.00
2018-09-23T04:12:17.929Z,2.33
2018-09-23T04:14:45.174Z,2.10
2018-09-23T04:17:12.406Z,2.33
2018-09-23T04:19:39.871Z,2.30
2018-09-23T04:22:07.130Z,1.83
2018-09-23T04:24:34.373Z,2.30
2018-09-23T04:27:01.602Z,2.00
2018-09-23T04:29:28.851Z,2.60
2018-09-23T04:31:56.109Z,2.17
2018-09-23T04:34:23.312Z,2.33
2018-09-23T04:36:50.530Z,2.33
2018-09-23T04:39:17.773Z,1.93
2018-09-23T04:41:45.038Z,2.10
2018-09-23T04:44:12.291Z,2.20
2018-09-23T04:46:39.513Z,2.20
2018-09-23T04:49:06.753Z,2.10
2018-09-23T04:51:34.004Z,2.37
2018-09-23T04:54:01.257Z,2.33
2018-09-23T04:56:28.472Z,2.17
2018-09-23T04:58:55.693Z,2.03
2018-09-23T05:01:22.960Z,1.90
2018-09-23T05:03:50.196Z,1.97
2018-09-23T05:06:18.132Z,2.20
2018-09-23T05:08:45.409Z,2.20
2018-09-23T05:11:12.636Z,2.27
2018-09-23T05:13:39.913Z,2.50
2018-09-23T05:16:07.297Z,2.30
2018-09-23T05:18:34.498Z,2.37
2018-09-23T05:21:01.718Z,2.43
2018-09-23T05:23:28.972Z,3.03
2018-09-23T05:25:59.144Z,2.87
2018-09-23T05:28:26.397Z,2.17
2018-09-23T05:30:53.662Z,2.70
2018-09-23T05:33:20.909Z,2.30
2018-09-23T05:35:48.184Z,2.20
2018-09-23T05:38:15.428Z,2.80
2018-09-23T05:40:42.661Z,2.17
2018-09-23T05:43:09.935Z,2.40
2018-09-23T05:45:37.398Z,2.47
2018-09-23T05:48:04.959Z,2.60
2018-09-23T05:50:32.208Z,2.10
2018-09-23T05:52:59.499Z,2.37
2018-09-23T05:55:26.719Z,2.20
2018-09-23T05:57:53.981Z,2.40
2018-09-23T06:00:21.272Z,2.47
2018-09-23T06:02:48.607Z,2.50
2018-09-23T06:05:15.914Z,2.53
2018-09-23T06:07:43.141Z,2.20
2018-09-23T06:10:10.401Z,2.60
2018-09-23T06:12:37.643Z,3.23
2018-09-23T06:15:04.913Z,2.53
2018-09-23T06:17:32.140Z,2.40
2018-09-23T06:19:59.413Z,2.80
2018-09-23T06:22:26.845Z,2.10
2018-09-23T06:24:54.096Z,2.80
2018-09-23T06:27:21.336Z,2.20
2018-09-23T06:29:48.620Z,2.27
2018-09-23T06:32:15.996Z,2.10
2018-09-23T06:34:43.228Z,1.97
2018-09-23T06:37:10.437Z,2.27
2018-09-23T06:39:37.694Z,2.40
2018-09-23T06:42:04.948Z,2.20
2018-09-23T06:44:32.138Z,2.47
2018-09-23T06:46:59.781Z,2.37
2018-09-23T06:49:27.061Z,2.30
2018-09-23T06:51:54.312Z,1.57
2018-09-23T06:54:21.710Z,2.10
2018-09-23T06:56:48.970Z,1.90
2018-09-23T06:59:16.200Z,1.87
2018-09-23T07:01:43.653Z,1.90
2018-09-23T07:04:10.895Z,2.10
2018-09-23T07:06:38.133Z,2.37
2018-09-23T07:09:05.708Z,2.47
2018-09-23T07:11:32.925Z,2.40
2018-09-23T07:14:00.176Z,2.10
2018-09-23T07:16:27.435Z,2.77
2018-09-23T07:18:54.660Z,1.97
2018-09-23T07:21:21.942Z,2.37
2018-09-23T07:23:49.422Z,2.77
2018-09-23T07:26:16.648Z,2.50
2018-09-23T07:28:45.620Z,3.27
2018-09-23T07:31:12.988Z,2.90
2018-09-23T07:33:40.236Z,3.50
2018-09-23T07:36:07.468Z,3.10
2018-09-23T07:38:34.742Z,3.43
2018-09-23T07:41:02.003Z,2.90
2018-09-23T07:43:29.352Z,3.50
2018-09-23T07:45:56.541Z,3.37
2018-09-23T07:48:23.837Z,3.33
2018-09-23T07:50:51.052Z,3.97
2018-09-23T07:53:18.236Z,3.63
2018-09-23T07:55:45.474Z,4.17
2018-09-23T07:58:12.763Z,4.43
2018-09-23T08:00:40.080Z,4.33
2018-09-23T08:03:07.365Z,4.03
2018-09-23T08:05:34.638Z,4.13
2018-09-23T08:08:01.901Z,3.80
2018-09-23T08:10:29.208Z,6.17
2018-09-23T08:12:56.606Z,5.00
2018-09-23T08:15:23.826Z,4.00
2018-09-23T08:17:51.130Z,3.77
2018-09-23T08:20:18.502Z,4.40
2018-09-23T08:22:45.640Z,4.53
2018-09-23T08:25:12.925Z,4.63
2018-09-23T08:27:40.178Z,3.87
2018-09-23T08:30:07.453Z,3.97
2018-09-23T08:32:34.689Z,4.33
2018-09-23T08:35:01.990Z,4.10
2018-09-23T08:37:29.325Z,4.07
2018-09-23T08:39:56.570Z,4.20
2018-09-23T08:42:25.073Z,4.77
2018-09-23T08:44:52.357Z,4.70
2018-09-23T08:47:19.602Z,3.50
2018-09-23T08:49:47.116Z,3.30
2018-09-23T08:52:14.611Z,3.57
2018-09-23T08:54:41.768Z,2.87
2018-09-23T08:57:09.012Z,3.33
2018-09-23T08:59:36.329Z,2.93
2018-09-23T09:02:03.590Z,3.23
2018-09-23T09:04:30.862Z,3.20
2018-09-23T09:06:58.091Z,2.60
2018-09-23T09:09:25.377Z,2.53
2018-09-23T09:11:52.623Z,2.63
2018-09-23T09:14:19.817Z,2.47
2018-09-23T09:16:47.096Z,2.93
2018-09-23T09:19:14.407Z,2.57
2018-09-23T09:21:41.646Z,2.47
2018-09-23T09:24:09.029Z,2.53
2018-09-23T09:26:36.378Z,2.30
2018-09-23T09:29:04.127Z,2.45
2018-09-23T09:31:31.454Z,2.58
2018-09-23T09:33:58.786Z,2.00
2018-09-23T09:36:26.083Z,1.80
2018-09-23T09:38:53.349Z,2.00
2018-09-23T09:41:20.600Z,2.10
2018-09-23T09:43:47.840Z,1.70
2018-09-23T09:46:15.100Z,2.45
2018-09-23T09:48:42.350Z,1.80
2018-09-23T09:51:09.661Z,2.12
2018-09-23T09:53:36.925Z,1.72
2018-09-23T09:56:04.156Z,2.22
2018-09-23T09:58:31.428Z,2.17
2018-09-23T10:00:58.629Z,1.67
2018-09-23T10:03:25.894Z,1.60
2018-09-23T10:05:53.245Z,1.70
2018-09-23T10:08:20.473Z,1.60
2018-09-23T10:10:47.753Z,1.87
2018-09-23T10:13:15.042Z,1.60
2018-09-23T10:15:42.341Z,1.37
2018-09-23T10:18:09.589Z,1.60
2018-09-23T10:20:36.884Z,1.70
2018-09-23T10:23:04.172Z,1.50
2018-09-23T10:25:31.438Z,2.15
2018-09-23T10:27:58.758Z,1.40
2018-09-23T10:30:26.098Z,1.70
2018-09-23T10:32:53.364Z,1.80
2018-09-23T10:35:20.601Z,1.45
2018-09-23T10:37:47.892Z,1.60
2018-09-23T10:40:15.115Z,1.52
2018-09-23T10:42:43.820Z,1.72
2018-09-23T10:45:11.088Z,1.40
2018-09-23T10:47:38.478Z,2.00
2018-09-23T10:50:05.762Z,1.60
2018-09-23T10:52:33.001Z,1.40
2018-09-23T10:55:00.417Z,1.15
2018-09-23T10:57:29.154Z,1.37
2018-09-23T10:59:58.019Z,1.05
2018-09-23T11:02:25.304Z,1.30
2018-09-23T11:04:52.576Z,1.10
2018-09-23T11:07:19.849Z,1.20
2018-09-23T11:09:47.102Z,0.90
2018-09-23T11:12:14.316Z,0.88
2018-09-23T11:14:41.552Z,0.98
2018-09-23T11:17:08.821Z,0.78
2018-09-23T11:19:36.071Z,0.80
2018-09-23T11:22:03.341Z,0.55
2018-09-23T11:24:30.602Z,0.75
2018-09-23T11:26:57.840Z,0.90
2018-09-23T11:29:25.095Z,0.70
2018-09-23T11:31:52.478Z,0.78
2018-09-23T11:34:21.545Z,0.90
2018-09-23T11:36:48.771Z,0.95
2018-09-23T11:39:16.012Z,0.75
2018-09-23T11:41:43.245Z,1.00
2018-09-23T11:44:10.562Z,1.20
2018-09-23T11:46:37.845Z,0.70
2018-09-23T11:49:05.203Z,1.00
2018-09-23T11:51:32.486Z,1.02
2018-09-23T11:53:59.991Z,0.88
2018-09-23T11:56:27.261Z,1.00
2018-09-23T11:58:54.526Z,1.30
2018-09-23T12:01:21.836Z,0.90
2018-09-23T12:03:49.153Z,0.80
2018-09-23T12:06:16.466Z,1.02
2018-09-23T12:08:43.732Z,1.55
2018-09-23T12:11:11.005Z,0.88
2018-09-23T12:13:38.310Z,0.80
2018-09-23T12:16:05.680Z,0.93
2018-09-23T12:18:32.935Z,1.10
2018-09-23T12:21:00.300Z,0.85
2018-09-23T12:23:27.608Z,1.00
2018-09-23T12:25:54.930Z,1.00
2018-09-23T12:28:22.436Z,0.90
2018-09-23T12:30:50.098Z,0.90
2018-09-23T12:33:17.406Z,0.80
2018-09-23T12:35:44.688Z,1.00
2018-09-23T12:38:11.930Z,0.90
2018-09-23T12:40:39.264Z,0.90
2018-09-23T12:43:06.637Z,0.90
2018-09-23T12:45:33.890Z,0.95
2018-09-23T12:48:01.202Z,0.90
2018-09-23T12:50:28.429Z,0.98
2018-09-23T12:52:55.659Z,1.00
2018-09-23T12:55:23.157Z,1.00
2018-09-23T12:57:50.424Z,0.88
2018-09-23T13:00:17.813Z,0.90
2018-09-23T13:02:45.062Z,0.88
2018-09-23T13:05:12.347Z,0.90
2018-09-23T13:07:39.572Z,1.55
2018-09-23T13:10:06.957Z,0.62
2018-09-23T13:12:34.285Z,0.80
2018-09-23T13:15:01.500Z,0.57
2018-09-23T13:17:28.812Z,0.78
2018-09-23T13:19:56.065Z,0.60
2018-09-23T13:22:23.341Z,0.80
2018-09-23T13:24:50.588Z,0.60
2018-09-23T13:27:17.893Z,0.70
2018-09-23T13:29:45.156Z,0.88
2018-09-23T13:32:12.401Z,0.70
2018-09-23T13:34:40.162Z,0.62
2018-09-23T13:37:07.420Z,0.62
2018-09-23T13:39:34.666Z,0.80
2018-09-23T13:42:01.947Z,0.70
2018-09-23T13:44:29.258Z,0.80
2018-09-23T13:46:56.504Z,0.70
2018-09-23T13:49:23.788Z,0.70
2018-09-23T13:51:51.035Z,0.60
2018-09-23T13:54:20.118Z,0.70
2018-09-23T13:56:47.360Z,0.70
2018-09-23T13:59:14.697Z,1.00
2018-09-23T14:01:42.037Z,0.70
2018-09-23T14:04:09.389Z,0.65
2018-09-23T14:06:36.646Z,0.65
2018-09-23T14:09:04.741Z,0.60
2018-09-23T14:11:32.020Z,0.60
2018-09-23T14:13:59.297Z,0.70
2018-09-23T14:16:26.658Z,0.50
2018-09-23T14:18:54.089Z,0.40
2018-09-23T14:21:21.422Z,0.47
2018-09-23T14:23:48.765Z,0.60
2018-09-23T14:26:16.063Z,0.80
2018-09-23T14:28:43.379Z,0.60
2018-09-23T14:31:10.673Z,0.53
2018-09-23T14:33:37.980Z,0.50
2018-09-23T14:36:05.253Z,0.60
2018-09-23T14:38:32.549Z,0.57
2018-09-23T14:40:59.832Z,0.50
2018-09-23T14:43:30.520Z,0.50
2018-09-23T14:45:57.737Z,0.60
2018-09-23T14:48:25.016Z,0.50
2018-09-23T14:50:52.327Z,0.45
2018-09-23T14:53:19.594Z,0.50
2018-09-23T14:55:46.882Z,0.40
2018-09-23T14:58:14.128Z,0.50
2018-09-23T15:00:41.478Z,0.60
2018-09-23T15:03:08.782Z,0.62
2018-09-23T15:05:36.098Z,0.57
2018-09-23T15:08:03.380Z,0.40
2018-09-23T15:10:30.676Z,0.50
2018-09-23T15:12:57.950Z,0.57
2018-09-23T15:15:25.270Z,0.60
2018-09-23T15:17:52.508Z,0.33
2018-09-23T15:20:19.831Z,0.50
2018-09-23T15:22:47.081Z,0.60
2018-09-23T15:25:14.376Z,0.95
2018-09-23T15:27:41.750Z,0.42
2018-09-23T15:30:09.065Z,0.60
2018-09-23T15:32:36.379Z,0.60
2018-09-23T15:35:03.889Z,0.40
2018-09-23T15:37:31.182Z,0.35
2018-09-23T15:39:58.427Z,0.70
2018-09-23T15:42:25.794Z,0.40
2018-09-23T15:44:52.997Z,0.50
2018-09-23T15:47:20.259Z,0.60
2018-09-23T15:49:47.561Z,0.65
2018-09-23T15:52:14.930Z,0.60
2018-09-23T15:54:45.074Z,0.60
2018-09-23T15:57:12.428Z,0.60
2018-09-23T15:59:39.716Z,0.47
2018-09-23T16:02:06.970Z,0.65
2018-09-23T16:04:34.427Z,0.78
2018-09-23T16:07:01.741Z,0.60
2018-09-23T16:09:29.046Z,0.65
2018-09-23T16:11:56.324Z,0.70
2018-09-23T16:14:23.721Z,0.45
2018-09-23T16:16:50.947Z,0.60
2018-09-23T16:19:18.381Z,0.90
2018-09-23T16:21:45.614Z,0.70
2018-09-23T16:24:12.978Z,0.80
2018-09-23T16:26:40.230Z,0.78
2018-09-23T16:29:07.525Z,0.60
2018-09-23T16:31:34.818Z,1.02
2018-09-23T16:34:02.128Z,0.88
2018-09-23T16:36:29.347Z,1.55
2018-09-23T16:38:56.615Z,1.40
2018-09-23T16:41:23.840Z,1.40
2018-09-23T16:43:51.139Z,1.63
2018-09-23T16:46:18.551Z,1.90
2018-09-23T16:48:49.012Z,1.63
2018-09-23T16:51:18.589Z,1.57
2018-09-23T16:53:45.879Z,1.47
2018-09-23T16:56:13.161Z,1.20
2018-09-23T16:58:40.556Z,1.10
2018-09-23T17:01:08.218Z,1.00
2018-09-23T17:03:35.590Z,0.90
2018-09-23T17:06:03.096Z,1.70
2018-09-23T17:08:30.378Z,1.20
2018-09-23T17:10:57.675Z,1.10
2018-09-23T17:13:24.932Z,0.90
2018-09-23T17:15:52.244Z,1.37
2018-09-23T17:18:19.517Z,1.27
2018-09-23T17:20:46.786Z,1.00
2018-09-23T17:23:14.107Z,0.90
2018-09-23T17:25:41.393Z,0.80
2018-09-23T17:28:08.748Z,0.70
2018-09-23T17:30:36.051Z,0.90
2018-09-23T17:33:03.317Z,0.80
2018-09-23T17:35:30.618Z,0.70
2018-09-23T17:37:57.901Z,0.80
2018-09-23T17:40:25.207Z,0.77
2018-09-23T17:42:52.458Z,1.03
2018-09-23T17:45:19.766Z,0.83
2018-09-23T17:47:47.178Z,1.10
2018-09-23T17:50:14.551Z,0.73
2018-09-23T17:52:41.807Z,1.00
2018-09-23T17:55:09.091Z,1.10
2018-09-23T17:57:36.355Z,0.40
2018-09-23T18:00:03.727Z,0.80
2018-09-23T18:02:30.999Z,0.70
2018-09-23T18:04:58.787Z,1.10
2018-09-23T18:07:26.534Z,0.90
2018-09-23T18:09:53.853Z,0.80
2018-09-23T18:12:21.156Z,0.80
2018-09-23T18:14:48.466Z,0.80
2018-09-23T18:17:15.672Z,0.80
2018-09-23T18:19:42.943Z,0.73
2018-09-23T18:22:10.248Z,0.83
2018-09-23T18:24:37.429Z,0.57
2018-09-23T18:27:04.716Z,0.70
2018-09-23T18:29:31.985Z,0.50
2018-09-23T18:31:59.317Z,0.77
2018-09-23T18:34:29.603Z,0.63
2018-09-23T18:36:57.003Z,0.73
2018-09-23T18:39:24.304Z,0.60
2018-09-23T18:41:51.627Z,0.63
2018-09-23T18:44:19.002Z,0.63
2018-09-23T18:46:46.253Z,0.90
2018-09-23T18:49:13.476Z,1.00
2018-09-23T18:51:40.756Z,0.90
2018-09-23T18:54:13.636Z,0.90
2018-09-23T18:56:40.911Z,0.70
2018-09-23T18:59:08.229Z,0.90
2018-09-23T19:01:35.573Z,0.80
2018-09-23T19:04:02.946Z,0.90
2018-09-23T19:06:30.185Z,1.00
2018-09-23T19:08:57.467Z,1.10
2018-09-23T19:11:24.725Z,0.83
2018-09-23T19:13:53.109Z,1.10
2018-09-23T19:16:26.139Z,0.70
2018-09-23T19:18:54.364Z,0.67
2018-09-23T19:21:21.778Z,0.87
2018-09-23T19:23:49.087Z,0.97
2018-09-23T19:26:16.396Z,0.47
2018-09-23T19:28:43.592Z,0.60
2018-09-23T19:31:10.958Z,0.40
2018-09-23T19:33:38.233Z,0.50
2018-09-23T19:36:05.497Z,0.60
2018-09-23T19:38:32.906Z,0.50
2018-09-23T19:41:00.221Z,0.70
2018-09-23T19:43:27.497Z,0.30
2018-09-23T19:45:54.748Z,0.40
2018-09-23T19:48:21.987Z,0.60
2018-09-23T19:50:49.740Z,0.60
2018-09-23T19:53:16.970Z,0.57
2018-09-23T19:55:44.200Z,0.80
2018-09-23T19:58:11.441Z,0.60
2018-09-23T20:00:38.733Z,0.80
2018-09-23T20:03:05.953Z,0.60
2018-09-23T20:05:36.396Z,0.80
2018-09-23T20:08:03.668Z,1.10
2018-09-23T20:10:31.473Z,0.40
2018-09-23T20:12:58.749Z,0.57
2018-09-23T20:15:26.011Z,0.60
2018-09-23T20:17:53.266Z,0.40
2018-09-23T20:20:25.240Z,0.37
2018-09-23T20:22:52.975Z,0.60
2018-09-23T20:25:20.256Z,0.30
2018-09-23T20:27:47.499Z,0.30
2018-09-23T20:30:14.919Z,0.50
2018-09-23T20:32:42.193Z,0.43
2018-09-23T20:35:09.436Z,0.40
2018-09-23T20:37:37.678Z,0.30
2018-09-23T20:40:05.018Z,0.40
2018-09-23T20:42:32.448Z,0.53
2018-09-23T20:44:59.786Z,0.40
2018-09-23T20:47:27.015Z,0.50
2018-09-23T20:49:54.608Z,0.50
2018-09-23T20:52:21.860Z,0.30
2018-09-23T20:54:49.109Z,0.53
2018-09-23T20:57:16.582Z,0.40
2018-09-23T20:59:47.770Z,0.60
2018-09-23T21:02:15.537Z,0.67
2018-09-23T21:04:42.761Z,0.57
2018-09-23T21:07:10.041Z,0.80
2018-09-23T21:09:37.285Z,0.80
2018-09-23T21:12:04.570Z,0.73
2018-09-23T21:14:31.829Z,0.70
2018-09-23T21:16:59.069Z,0.70
2018-09-23T21:19:30.701Z,0.60
2018-09-23T21:22:03.245Z,0.50
2018-09-23T21:24:32.875Z,0.60
2018-09-23T21:27:03.486Z,0.80
2018-09-23T21:29:34.201Z,0.87
2018-09-23T21:32:06.435Z,0.70
2018-09-23T21:34:35.195Z,0.70
2018-09-23T21:37:06.460Z,0.80
2018-09-23T21:39:34.701Z,0.67
2018-09-23T21:42:03.880Z,0.60
2018-09-23T21:44:32.840Z,0.50
2018-09-23T21:47:01.551Z,0.80
2018-09-23T21:49:30.203Z,0.73
2018-09-23T21:52:00.933Z,0.80
2018-09-23T21:54:28.576Z,0.77
2018-09-23T21:56:56.316Z,0.90
2018-09-23T21:59:27.038Z,0.70
2018-09-23T22:01:54.698Z,0.60
2018-09-23T22:04:26.428Z,0.70
2018-09-23T22:06:57.345Z,0.50
2018-09-23T22:09:29.767Z,0.63
2018-09-23T22:11:57.885Z,0.67
2018-09-23T22:14:29.818Z,0.67
2018-09-23T22:16:59.047Z,0.90
2018-09-23T22:19:28.265Z,0.90
2018-09-23T22:21:56.997Z,0.80
2018-09-23T22:24:25.954Z,0.70
2018-09-23T22:26:53.409Z,0.53
2018-09-23T22:29:21.958Z,0.63
2018-09-23T22:31:49.213Z,0.60
2018-09-23T22:34:16.881Z,0.70
2018-09-23T22:36:44.544Z,0.67
2018-09-23T22:39:12.273Z,0.70
2018-09-23T22:41:41.416Z,0.70
2018-09-23T22:44:08.848Z,0.60
2018-09-23T22:46:37.397Z,0.50
2018-09-23T22:49:09.192Z,1.00
2018-09-23T22:51:36.844Z,0.60
2018-09-23T22:54:04.226Z,0.67
2018-09-23T22:56:31.906Z,0.40
2018-09-23T22:58:59.476Z,0.70
2018-09-23T23:01:28.096Z,0.47
2018-09-23T23:03:57.246Z,0.80
2018-09-23T23:06:26.885Z,0.70
2018-09-23T23:08:57.833Z,0.50
2018-09-23T23:11:30.236Z,0.70
2018-09-23T23:13:59.258Z,0.40
2018-09-23T23:16:27.800Z,0.53
2018-09-23T23:18:56.043Z,0.60
2018-09-23T23:21:25.316Z,0.40
2018-09-23T23:23:53.672Z,0.53
2018-09-23T23:26:22.191Z,0.60
2018-09-23T23:28:49.882Z,0.60
2018-09-23T23:31:20.100Z,0.60
2018-09-23T23:33:53.725Z,0.73
2018-09-23T23:36:25.951Z,0.80
2018-09-23T23:38:58.250Z,0.67
2018-09-23T23:41:29.546Z,0.60
2018-09-23T23:43:57.436Z,0.80
2018-09-23T23:46:28.608Z,0.77
2018-09-23T23:49:01.633Z,0.90
2018-09-23T23:51:33.757Z,0.63
2018-09-23T23:54:06.074Z,0.70
2018-09-23T23:56:39.383Z,0.90
2018-09-23T23:59:07.192Z,0.80
